ADDS METAR Data INFO
IDs: Format: Raw Decoded Include TAF

Data at: 0250 UTC 21 Oct 2017

KBDH 210235Z AUTO 15013G19KT 10SM CLR 19/12 A2962 RMK AO2
KBDH 210215Z AUTO 15013G17KT 10SM CLR 19/12 A2962 RMK AO2
KBDH 210155Z AUTO 16013G19KT 10SM CLR 20/12 A2963 RMK AO2
KBDH 210135Z AUTO 16013G18KT 10SM CLR 21/12 A2963 RMK AO2
KBDH 210115Z AUTO 16011G18KT 10SM CLR 21/11 A2964 RMK AO2
KBDH 210054Z AUTO 16011KT 10SM CLR 21/11 A2964 RMK AO2
KBDH 210035Z AUTO 16013G21KT 10SM CLR 21/11 A2963 RMK AO2
KBDH 210015Z AUTO 15013G17KT 10SM CLR 21/11 A2963 RMK AO2
KBDH 202354Z AUTO 16012G20KT 10SM CLR 22/11 A2962 RMK AO2
KBDH 202335Z AUTO 16013G19KT 10SM CLR 22/11 A2962 RMK AO2
KBDH 202315Z AUTO 16012G21KT 10SM CLR 23/11 A2962 RMK AO2
KBDH 202254Z AUTO 16012G24KT 10SM CLR 24/11 A2962 RMK AO2
KBDH 202235Z AUTO 16012G21KT 10SM CLR 24/11 A2963 RMK AO2
KBDH 202215Z AUTO 16012G21KT 10SM CLR 24/12 A2963 RMK AO2
KBDH 202155Z AUTO 16013G19KT 144V204 10SM CLR 26/11 A2964 RMK AO2
KBDH 202135Z AUTO 17010G20KT 10SM CLR 26/11 A2964 RMK AO2
KBDH 202115Z AUTO 17011G23KT 10SM CLR 26/11 A2964 RMK AO2
KBDH 202055Z AUTO 18013G22KT 10SM CLR 27/11 A2964 RMK AO2
KBDH 202035Z AUTO 17011G25KT 10SM CLR 27/11 A2964 RMK AO2
KBDH 202015Z AUTO 18012G21KT 144V224 10SM CLR 27/12 A2965 RMK AO2
KBDH 201955Z AUTO 17013G25KT 154V214 10SM CLR 27/12 A2967 RMK AO2
KBDH 201935Z AUTO 17012G26KT 10SM CLR 26/12 A2967 RMK AO2
KBDH 201915Z AUTO 17011G22KT 154V214 10SM CLR 25/12 A2968 RMK AO2
KBDH 201855Z AUTO 17016G25KT 10SM CLR 24/12 A2970 RMK AO2
KBDH 201835Z AUTO 17014G23KT 144V204 10SM CLR 24/12 A2971 RMK AO2
KBDH 201815Z AUTO 17010G20KT 144V204 10SM CLR 24/12 A2972 RMK AO2
KBDH 201755Z AUTO 17010G21KT 144V204 10SM CLR 23/12 A2973 RMK AO2
KBDH 201735Z AUTO 17009G17KT 144V224 10SM CLR 23/12 A2974 RMK AO2
KBDH 201715Z AUTO 18007G16KT 144V214 10SM CLR 22/12 A2975 RMK AO2
KBDH 201655Z AUTO 16012G19KT 10SM CLR 22/11 A2976 RMK AO2
KBDH 201635Z AUTO 18008G15KT 154V244 10SM CLR 21/12 A2977 RMK AO2
KBDH 201615Z AUTO 17006G14KT 10SM CLR 20/11 A2978 RMK AO2
KBDH 201555Z AUTO 18009G17KT 144V234 10SM CLR 19/11 A2979 RMK AO2
KBDH 201535Z AUTO 18008KT 164V224 10SM CLR 18/11 A2979 RMK AO2
KBDH 201515Z AUTO 18007KT 144V204 10SM CLR 18/11 A2980 RMK AO2
KBDH 201455Z AUTO 17009G14KT 10SM CLR 17/11 A2980 RMK AO2
KBDH 201435Z AUTO 17007KT 154V214 10SM CLR 16/11 A2981 RMK AO2
KBDH 201415Z AUTO 17007KT 10SM CLR 15/10 A2981 RMK AO2
KBDH 201355Z AUTO 17008KT 10SM CLR 14/10 A2982 RMK AO2
KBDH 201335Z AUTO 16007KT 10SM CLR 13/09 A2981 RMK AO2
KBDH 201314Z AUTO 16007KT 10SM CLR 13/09 A2981 RMK AO2
KBDH 201255Z AUTO 16006KT 10SM CLR 13/09 A2981 RMK AO2
KBDH 201235Z AUTO 16006KT 10SM CLR 13/09 A2981 RMK AO2
KBDH 201215Z AUTO 16007KT 10SM CLR 12/09 A2981 RMK AO2
KBDH 201155Z AUTO 15006KT 10SM CLR 12/09 A2982 RMK AO2
KBDH 201135Z AUTO 15006KT 10SM CLR 12/09 A2982 RMK AO2
KBDH 201115Z AUTO 15005KT 10SM CLR 12/09 A2982 RMK AO2
KBDH 201055Z AUTO 14006KT 10SM CLR 11/09 A2982 RMK AO2
KBDH 201035Z AUTO 14005KT 10SM CLR 11/09 A2982 RMK AO2
KBDH 201015Z AUTO 14005KT 10SM CLR 11/09 A2983 RMK AO2
KBDH 200955Z AUTO 14006KT 10SM CLR 12/10 A2983 RMK AO2
KBDH 200934Z AUTO 14006KT 10SM CLR 12/09 A2983 RMK AO2
KBDH 200915Z AUTO 14005KT 10SM CLR 12/10 A2983 RMK AO2
KBDH 200855Z AUTO 14005KT 10SM CLR 11/09 A2984 RMK AO2
KBDH 200835Z AUTO 13005KT 10SM CLR 11/09 A2984 RMK AO2
KBDH 200815Z AUTO 14005KT 10SM CLR 11/09 A2985 RMK AO2
KBDH 200755Z AUTO 14005KT 10SM CLR 11/09 A2985 RMK AO2
KBDH 200735Z AUTO 15004KT 10SM CLR 11/09 A2986 RMK AO2
KBDH 200715Z AUTO 13005KT 10SM CLR 11/09 A2986 RMK AO2
KBDH 200655Z AUTO 13005KT 10SM CLR 11/09 A2986 RMK AO2
KBDH 200634Z AUTO 13005KT 10SM CLR 11/09 A2986 RMK AO2
KBDH 200615Z AUTO 13005KT 10SM CLR 11/08 A2987 RMK AO2
KBDH 200601Z AUTO 13005KT 10SM CLR 11/08 A2987 RMK AO2
KBDH 200555Z AUTO 13005KT 10SM CLR 11/08 A2987 RMK AO2
KBDH 200533Z AUTO 13005KT 10SM CLR 11/08 A2987 RMK AO2
KBDH 200515Z AUTO 13006KT 10SM CLR 11/08 A2987 RMK AO2
KBDH 200455Z AUTO 13006KT 10SM CLR 11/08 A2988 RMK AO2
KBDH 200435Z AUTO 13005KT 10SM CLR 11/08 A2988 RMK AO2
KBDH 200415Z AUTO 13005KT 10SM CLR 11/08 A2988 RMK AO2
KBDH 200355Z AUTO 13004KT 10SM CLR 12/08 A2988 RMK AO2
KBDH 200335Z AUTO 15004KT 10SM CLR 13/08 A2988 RMK AO2
KBDH 200315Z AUTO 16003KT 10SM CLR 13/08 A2988 RMK AO2
KBDH 200255Z AUTO 16003KT 10SM CLR 14/08 A2988 RMK AO2
KBDH 200235Z AUTO 16003KT 10SM CLR 14/08 A2988 RMK AO2
KBDH 200215Z AUTO 14004KT 10SM CLR 16/08 A2988 RMK AO2
KBDH 200155Z AUTO 15006KT 10SM CLR 16/08 A2988 RMK AO2
KBDH 200135Z AUTO 15008KT 10SM CLR 16/08 A2988 RMK AO2
KBDH 200115Z AUTO 15008KT 10SM CLR 16/07 A2988 RMK AO2
KBDH 200055Z AUTO 14008KT 10SM CLR 15/07 A2988 RMK AO2
KBDH 200035Z AUTO 13007KT 10SM CLR 17/07 A2989 RMK AO2
KBDH 200015Z AUTO 15007KT 10SM CLR 18/07 A2989 RMK AO2
KBDH 192355Z AUTO 16006KT 10SM CLR 19/07 A2989 RMK AO2
KBDH 192335Z AUTO 14007KT 10SM CLR 19/07 A2989 RMK AO2
KBDH 192315Z AUTO 15006KT 10SM CLR 20/07 A2988 RMK AO2
KBDH 192255Z AUTO 15008KT 10SM CLR 22/07 A2988 RMK AO2
KBDH 192235Z AUTO 16008KT 10SM CLR 22/06 A2988 RMK AO2
KBDH 192215Z AUTO 16009KT 10SM CLR 23/06 A2989 RMK AO2
KBDH 192155Z AUTO 17008G14KT 144V224 10SM CLR 23/06 A2990 RMK AO2
KBDH 192135Z AUTO 17008G16KT 10SM CLR 24/06 A2990 RMK AO2
KBDH 192115Z AUTO 19007KT 144V234 10SM CLR 24/06 A2990 RMK AO2
KBDH 192055Z AUTO 18006G14KT 10SM CLR 24/06 A2990 RMK AO2
KBDH 192035Z AUTO 18007G15KT 154V234 10SM CLR 23/05 A2991 RMK AO2
KBDH 192015Z AUTO 18008KT 144V234 10SM CLR 23/04 A2992 RMK AO2
KBDH 191955Z AUTO 19011G19KT 154V254 10SM CLR 23/04 A2993 RMK AO2
KBDH 191935Z AUTO 19008G18KT 134V214 10SM CLR 23/04 A2994 RMK AO2
KBDH 191915Z AUTO 18009G17KT 154V224 10SM CLR 23/03 A2994 RMK AO2
KBDH 191855Z AUTO 18008G17KT 114V214 10SM CLR 23/03 A2995 RMK AO2
KBDH 191835Z AUTO 18008G18KT 134V244 10SM CLR 22/03 A2996 RMK AO2
KBDH 191800Z AUTO 17010G14KT 10SM CLR 22/02 A2998 RMK AO2
KBDH 191735Z AUTO 20008G21KT 164V224 10SM CLR 21/02 A3000 RMK AO2
KBDH 191715Z AUTO 20008G15KT 134V234 10SM CLR 20/02 A3000 RMK AO2
KBDH 191655Z AUTO 18007G18KT 10SM CLR 19/02 A3001 RMK AO2
KBDH 191635Z AUTO 18008G15KT 10SM CLR 18/01 A3001 RMK AO2
KBDH 191614Z AUTO 17007KT 144V224 10SM CLR 17/01 A3001 RMK AO2
KBDH 191555Z AUTO 17009G15KT 10SM CLR 16/00 A3002 RMK AO2
KBDH 191535Z AUTO 17008KT 10SM CLR 16/01 A3002 RMK AO2
KBDH 191514Z AUTO 16006KT 10SM CLR 13/02 A3002 RMK AO2
KBDH 191455Z AUTO 16006KT 10SM CLR 12/02 A3002 RMK AO2